Time;durP1;ratioP1;P1;durP2;ratioP2;P2;SDS_P1;SDS_P2;PMS_P1;PMS_P2;Temp;Humidity;BMP_temperature;BMP_pressure;BME280_temperature;BME280_humidity;BME280_pressure;Samples;Min_cycle;Max_cycle;Signal;HPM_P1;HPM_P2
2023/11/08 00:01:00;;;;;;;2.97;1.90;;;9.70;99.90;;;;;;2070717;28;20016;-85
2023/11/08 00:02:02;;;;;;;2.35;1.92;;;9.70;99.90;;;;;;2070541;28;20089;-85
2023/11/08 00:03:02;;;;;;;3.92;1.90;;;9.80;99.90;;;;;;2069722;28;20502;-85
2023/11/08 00:04:03;;;;;;;3.33;1.67;;;9.70;99.90;;;;;;2063658;28;20026;-82
2023/11/08 00:05:04;;;;;;;4.60;1.80;;;9.70;99.90;;;;;;2063202;28;20061;-84
2023/11/08 00:06:04;;;;;;;4.03;2.08;;;9.70;99.90;;;;;;2069224;28;20049;-84
2023/11/08 00:07:05;;;;;;;2.40;1.70;;;9.70;99.90;;;;;;2065376;28;20038;-83
2023/11/08 00:08:06;;;;;;;2.58;1.90;;;9.70;99.90;;;;;;2060883;28;20078;-84
2023/11/08 00:09:09;;;;;;;2.33;1.85;;;9.60;99.90;;;;;;2072066;28;20036;-82
2023/11/08 00:10:12;;;;;;;2.55;1.80;;;9.60;99.90;;;;;;2069818;28;20507;-80
2023/11/08 00:11:13;;;;;;;2.78;1.80;;;9.60;99.90;;;;;;2070661;28;20034;-82
2023/11/08 00:12:14;;;;;;;2.55;1.80;;;9.60;99.90;;;;;;2070355;28;20038;-83
2023/11/08 00:13:20;;;;;;;2.40;1.80;;;9.60;99.90;;;;;;2061590;28;20092;-85
2023/11/08 00:14:21;;;;;;;3.28;1.70;;;9.60;99.90;;;;;;2055262;28;20516;-82
2023/11/08 00:15:21;;;;;;;2.38;1.63;;;9.60;99.90;;;;;;2062517;28;20097;-85
2023/11/08 00:16:22;;;;;;;3.78;1.70;;;9.60;99.90;;;;;;2062188;28;20042;-85
2023/11/08 00:17:24;;;;;;;3.00;1.85;;;9.60;99.90;;;;;;2071522;28;20460;-84
2023/11/08 00:18:26;;;;;;;2.30;1.60;;;9.50;99.90;;;;;;2070299;28;20619;-83
2023/11/08 00:19:27;;;;;;;2.08;1.80;;;9.50;99.90;;;;;;2065747;28;20028;-84
2023/11/08 00:20:27;;;;;;;2.75;1.90;;;9.50;99.90;;;;;;2054063;28;20034;-82
2023/11/08 00:21:30;;;;;;;4.25;1.88;;;9.50;99.90;;;;;;2053192;28;20260;-83
2023/11/08 00:22:30;;;;;;;1.85;1.63;;;9.40;99.90;;;;;;2055611;28;20035;-85
2023/11/08 00:23:31;;;;;;;3.22;1.70;;;9.40;99.90;;;;;;2067699;28;20038;-85
2023/11/08 00:24:31;;;;;;;2.72;1.77;;;9.40;99.90;;;;;;2065132;28;20041;-86
2023/11/08 00:25:32;;;;;;;2.17;1.92;;;9.40;99.90;;;;;;2074964;28;20030;-85
2023/11/08 00:26:33;;;;;;;4.00;2.00;;;9.40;99.90;;;;;;2073248;28;20026;-84
2023/11/08 00:27:33;;;;;;;3.55;1.70;;;9.40;99.90;;;;;;2064726;28;20037;-83
2023/11/08 00:28:34;;;;;;;3.33;1.90;;;9.40;99.90;;;;;;2065571;28;20197;-85
2023/11/08 00:29:35;;;;;;;2.50;1.73;;;9.40;99.90;;;;;;2072671;28;20034;-83
2023/11/08 00:30:36;;;;;;;2.60;1.85;;;9.30;99.90;;;;;;2066338;28;20030;-83
2023/11/08 00:31:36;;;;;;;4.30;2.00;;;9.30;99.90;;;;;;2062874;28;20026;-83
2023/11/08 00:32:37;;;;;;;3.83;1.77;;;9.40;99.90;;;;;;2067818;28;20058;-83
2023/11/08 00:33:37;;;;;;;2.78;1.60;;;9.30;99.90;;;;;;2065840;28;20117;-84
2023/11/08 00:34:38;;;;;;;2.15;1.45;;;9.30;99.90;;;;;;2063976;28;20539;-84
2023/11/08 00:35:38;;;;;;;1.55;1.42;;;9.30;99.90;;;;;;2061096;28;20070;-85
2023/11/08 00:36:39;;;;;;;5.13;1.90;;;9.30;99.90;;;;;;2061635;28;20026;-85
2023/11/08 00:37:40;;;;;;;3.00;1.58;;;9.40;99.90;;;;;;2060197;28;20193;-84
2023/11/08 00:38:40;;;;;;;2.42;1.70;;;9.30;99.90;;;;;;2060911;28;20084;-84
2023/11/08 00:39:42;;;;;;;3.63;1.58;;;9.40;99.90;;;;;;2051074;28;20572;-84
2023/11/08 00:40:43;;;;;;;3.42;1.83;;;9.30;99.90;;;;;;2060340;28;20030;-85
2023/11/08 00:41:44;;;;;;;4.38;1.60;;;9.30;99.90;;;;;;2067174;28;20031;-85
2023/11/08 00:42:44;;;;;;;2.35;1.70;;;9.30;99.90;;;;;;2067937;28;20081;-86
2023/11/08 00:43:45;;;;;;;3.10;1.70;;;9.30;99.90;;;;;;2066639;28;20036;-85
2023/11/08 00:44:45;;;;;;;3.00;1.75;;;9.30;99.90;;;;;;2069110;28;20515;-83
2023/11/08 00:45:46;;;;;;;2.17;1.80;;;9.30;99.90;;;;;;2069216;28;20056;-82
2023/11/08 00:46:47;;;;;;;3.88;1.80;;;9.30;99.90;;;;;;2060694;28;20559;-85
2023/11/08 00:47:47;;;;;;;1.85;1.70;;;9.30;99.90;;;;;;2064951;28;20026;-85
2023/11/08 00:48:49;;;;;;;2.22;1.60;;;9.30;99.90;;;;;;2068269;28;20553;-83
2023/11/08 00:49:50;;;;;;;4.20;1.80;;;9.30;99.90;;;;;;2069099;28;20040;-85
2023/11/08 00:50:53;;;;;;;3.28;2.00;;;9.30;99.90;;;;;;2066092;28;20427;-87
2023/11/08 00:51:54;;;;;;;2.65;1.88;;;9.30;99.90;;;;;;2069523;28;20058;-86
2023/11/08 00:52:58;;;;;;;3.42;1.80;;;9.30;99.90;;;;;;2071397;28;20028;-85
2023/11/08 00:54:00;;;;;;;3.90;1.80;;;9.30;99.90;;;;;;2061382;28;20034;-86
2023/11/08 00:55:01;;;;;;;2.00;1.80;;;9.20;99.90;;;;;;2059124;28;20023;-87
2023/11/08 00:56:02;;;;;;;3.85;2.08;;;9.20;99.90;;;;;;2054931;28;20304;-83
2023/11/08 00:57:02;;;;;;;3.67;1.90;;;9.20;99.90;;;;;;2054085;28;20027;-83
2023/11/08 00:58:03;;;;;;;3.42;1.70;;;9.20;99.90;;;;;;2054762;28;20015;-84
2023/11/08 00:59:04;;;;;;;2.83;1.90;;;9.10;99.90;;;;;;2066698;28;20045;-86
2023/11/08 01:00:07;;;;;;;3.22;2.00;;;9.10;99.90;;;;;;2064048;28;20126;-85
2023/11/08 01:01:08;;;;;;;3.75;1.73;;;9.10;99.90;;;;;;2066304;28;20034;-84
2023/11/08 01:02:08;;;;;;;2.92;1.90;;;9.10;99.90;;;;;;2071660;28;20045;-84
2023/11/08 01:03:09;;;;;;;2.88;1.90;;;9.10;99.90;;;;;;2055933;28;20490;-84
2023/11/08 01:04:13;;;;;;;4.63;1.90;;;9.10;99.90;;;;;;2051475;28;20556;-85
2023/11/08 01:05:15;;;;;;;2.72;1.90;;;9.10;99.90;;;;;;2062992;28;20019;-85
2023/11/08 01:06:15;;;;;;;3.45;2.15;;;9.00;99.90;;;;;;2060255;28;20030;-86
2023/11/08 01:07:16;;;;;;;3.10;1.90;;;9.00;99.90;;;;;;2059597;28;20034;-85
2023/11/08 01:08:17;;;;;;;4.03;2.10;;;9.00;99.90;;;;;;2055234;28;20161;-85
2023/11/08 01:09:20;;;;;;;4.38;2.15;;;9.00;99.90;;;;;;2047563;28;20015;-85
2023/11/08 01:10:21;;;;;;;2.85;1.95;;;9.00;99.90;;;;;;2054791;28;20038;-85
2023/11/08 01:11:22;;;;;;;3.03;2.05;;;9.00;99.90;;;;;;2070385;28;20026;-86
2023/11/08 01:12:23;;;;;;;3.47;2.00;;;9.00;99.90;;;;;;2053831;28;20583;-80
2023/11/08 01:13:24;;;;;;;2.95;2.00;;;9.00;99.90;;;;;;2062352;28;20046;-84
2023/11/08 01:14:25;;;;;;;3.35;2.05;;;9.00;99.90;;;;;;2070145;28;20057;-84
2023/11/08 01:15:25;;;;;;;3.28;2.10;;;9.00;99.90;;;;;;2058649;28;20366;-85
2023/11/08 01:16:26;;;;;;;4.50;2.20;;;9.00;99.90;;;;;;2051288;28;20058;-85
2023/11/08 01:17:27;;;;;;;2.88;1.95;;;9.00;99.90;;;;;;2058324;28;20030;-85
2023/11/08 01:18:27;;;;;;;6.15;2.10;;;9.00;99.90;;;;;;2060443;28;20034;-83
2023/11/08 01:19:28;;;;;;;2.58;2.15;;;9.00;99.90;;;;;;2053801;28;20031;-86
2023/11/08 01:20:29;;;;;;;3.55;2.33;;;9.00;99.90;;;;;;2058422;28;20081;-86
2023/11/08 01:21:31;;;;;;;4.65;2.35;;;9.00;99.90;;;;;;2070358;28;20121;-84
2023/11/08 01:22:32;;;;;;;2.55;2.05;;;9.00;99.90;;;;;;2064171;28;20037;-82
2023/11/08 01:23:33;;;;;;;4.40;2.08;;;9.00;99.90;;;;;;2067694;28;20062;-85
2023/11/08 01:24:34;;;;;;;6.03;2.30;;;9.00;99.90;;;;;;2062265;28;20065;-88
2023/11/08 01:25:35;;;;;;;3.85;2.17;;;9.00;99.90;;;;;;2060820;28;20014;-85
2023/11/08 01:26:35;;;;;;;3.40;2.17;;;9.10;99.90;;;;;;2055147;28;20046;-84
2023/11/08 01:27:37;;;;;;;3.70;2.00;;;9.10;99.90;;;;;;2056098;28;20031;-85
2023/11/08 01:28:38;;;;;;;3.88;2.10;;;9.10;99.90;;;;;;2066640;28;20022;-84
2023/11/08 01:29:39;;;;;;;5.30;2.17;;;9.10;99.90;;;;;;2068433;28;20382;-84
2023/11/08 01:30:41;;;;;;;3.30;1.92;;;9.10;99.90;;;;;;2063476;28;20133;-84
2023/11/08 01:31:42;;;;;;;4.78;2.20;;;9.10;99.90;;;;;;2061895;28;20058;-84
2023/11/08 01:32:43;;;;;;;3.92;2.00;;;9.20;99.90;;;;;;2066759;28;20037;-84
2023/11/08 01:33:43;;;;;;;4.55;2.00;;;9.20;99.90;;;;;;2068984;28;20029;-85
2023/11/08 01:34:44;;;;;;;2.45;1.92;;;9.20;99.90;;;;;;2069830;28;20037;-85
2023/11/08 01:35:44;;;;;;;4.55;2.10;;;9.20;99.90;;;;;;2065173;28;20030;-85
2023/11/08 01:36:45;;;;;;;5.47;2.00;;;9.30;99.90;;;;;;2067127;28;20506;-84
2023/11/08 01:37:46;;;;;;;3.85;2.10;;;9.30;99.90;;;;;;2066990;28;20038;-84
2023/11/08 01:38:46;;;;;;;4.72;2.13;;;9.30;99.90;;;;;;2072610;28;20060;-85
2023/11/08 01:39:47;;;;;;;4.07;2.10;;;9.30;99.90;;;;;;2064783;28;20019;-84
2023/11/08 01:40:48;;;;;;;5.75;2.10;;;9.30;99.90;;;;;;2056525;28;20035;-85
2023/11/08 01:41:49;;;;;;;3.28;2.00;;;9.30;99.90;;;;;;2061720;28;20102;-84
2023/11/08 01:42:50;;;;;;;4.40;2.03;;;9.30;99.90;;;;;;2072028;28;20029;-85
2023/11/08 01:43:51;;;;;;;5.75;2.25;;;9.30;99.90;;;;;;2069622;28;20029;-84
2023/11/08 01:44:52;;;;;;;4.45;2.10;;;9.30;99.90;;;;;;2062369;28;20034;-85
2023/11/08 01:46:04;;;;;;;3.10;2.00;;;9.30;99.90;;;;;;2053565;28;20064;-83
2023/11/08 01:47:05;;;;;;;4.05;1.83;;;9.40;99.90;;;;;;2066587;28;20472;-84
2023/11/08 01:48:05;;;;;;;3.17;1.70;;;9.40;99.90;;;;;;2060939;28;20030;-84
2023/11/08 01:49:06;;;;;;;3.00;1.88;;;9.40;99.90;;;;;;2064749;28;20170;-84
2023/11/08 01:50:09;;;;;;;2.85;1.88;;;9.40;99.90;;;;;;2063086;28;20643;-84
2023/11/08 01:51:10;;;;;;;2.55;1.80;;;9.40;99.90;;;;;;2055726;28;20023;-83
2023/11/08 01:52:11;;;;;;;3.63;1.90;;;9.40;99.90;;;;;;2054950;28;20034;-85
2023/11/08 01:53:12;;;;;;;3.85;2.00;;;9.40;99.90;;;;;;2061124;28;20058;-84
2023/11/08 01:54:13;;;;;;;3.80;1.90;;;9.40;99.90;;;;;;2065851;28;20098;-85
2023/11/08 01:55:14;;;;;;;4.20;1.90;;;9.40;99.90;;;;;;2064629;28;20033;-83
2023/11/08 01:56:16;;;;;;;3.60;1.83;;;9.40;99.90;;;;;;2068824;28;20103;-83
2023/11/08 01:57:17;;;;;;;6.13;2.00;;;9.40;99.90;;;;;;2064911;28;20097;-85
2023/11/08 01:58:17;;;;;;;5.28;2.10;;;9.40;99.90;;;;;;2068484;28;20025;-84
2023/11/08 01:59:18;;;;;;;4.43;1.70;;;9.40;99.90;;;;;;2053182;28;20037;-83
2023/11/08 02:00:21;;;;;;;2.72;1.92;;;9.40;99.90;;;;;;2065293;28;20034;-83
2023/11/08 02:01:23;;;;;;;3.45;1.90;;;9.40;99.90;;;;;;2065094;28;20026;-84
2023/11/08 02:02:24;;;;;;;4.03;1.77;;;9.50;99.90;;;;;;2064645;28;20034;-85
2023/11/08 02:03:27;;;;;;;3.53;1.83;;;9.40;99.90;;;;;;2067751;28;20084;-83
2023/11/08 02:04:31;;;;;;;4.68;2.00;;;9.50;99.90;;;;;;2062046;28;20027;-84
2023/11/08 02:05:33;;;;;;;3.88;1.90;;;9.50;99.90;;;;;;2058330;28;20390;-84
2023/11/08 02:06:34;;;;;;;5.45;1.90;;;9.50;99.90;;;;;;2069033;28;20038;-83
2023/11/08 02:07:34;;;;;;;5.43;1.80;;;9.50;99.90;;;;;;2056844;28;20050;-85
2023/11/08 02:08:35;;;;;;;3.53;1.98;;;9.50;99.90;;;;;;2053232;28;20063;-83
2023/11/08 02:09:36;;;;;;;3.42;1.88;;;9.50;99.90;;;;;;2060794;28;20038;-83
2023/11/08 02:10:37;;;;;;;3.00;1.90;;;9.50;99.90;;;;;;2063811;28;20018;-84
2023/11/08 02:11:38;;;;;;;5.13;2.15;;;9.50;99.90;;;;;;2069193;28;20193;-84
2023/11/08 02:12:42;;;;;;;4.03;2.00;;;9.50;99.90;;;;;;2070379;28;20030;-85
2023/11/08 02:13:43;;;;;;;4.88;2.00;;;9.50;99.90;;;;;;2062986;28;20053;-83
2023/11/08 02:15:05;;;;;;;3.97;1.90;;;9.50;99.90;;;;;;2065782;28;20523;-83
2023/11/08 02:16:06;;;;;;;5.93;1.92;;;9.50;99.90;;;;;;2059531;28;20022;-85
2023/11/08 02:17:06;;;;;;;3.17;1.85;;;9.50;99.90;;;;;;2064006;28;20444;-84
2023/11/08 02:18:09;;;;;;;4.18;1.90;;;9.50;99.90;;;;;;2062815;28;20026;-85
2023/11/08 02:19:09;;;;;;;3.72;1.83;;;9.50;99.90;;;;;;2067530;28;20435;-82
2023/11/08 02:20:10;;;;;;;4.47;1.83;;;9.50;99.90;;;;;;2063108;28;20049;-83
2023/11/08 02:21:13;;;;;;;4.60;1.85;;;9.50;99.90;;;;;;2058899;28;20428;-84
2023/11/08 02:22:14;;;;;;;5.88;2.00;;;9.50;99.90;;;;;;2068830;28;20037;-84
2023/11/08 02:23:15;;;;;;;4.72;1.90;;;9.50;99.90;;;;;;2069087;28;20519;-84
2023/11/08 02:24:23;;;;;;;5.55;2.08;;;9.50;99.90;;;;;;2067313;28;20049;-83
2023/11/08 02:25:24;;;;;;;5.53;2.00;;;9.50;99.90;;;;;;2066514;28;20030;-84
2023/11/08 02:26:25;;;;;;;6.35;2.00;;;9.50;99.90;;;;;;2062276;28;20022;-85
2023/11/08 02:27:25;;;;;;;5.88;1.90;;;9.50;99.90;;;;;;2062234;28;20038;-82
2023/11/08 02:28:27;;;;;;;7.55;2.10;;;9.50;99.90;;;;;;2053729;28;20382;-83
2023/11/08 02:29:28;;;;;;;7.20;1.85;;;9.50;99.90;;;;;;2059481;28;20532;-85
2023/11/08 02:30:28;;;;;;;7.68;2.05;;;9.50;99.90;;;;;;2056681;28;20102;-84
2023/11/08 02:31:30;;;;;;;6.03;1.92;;;9.50;99.90;;;;;;2049369;28;20035;-85
2023/11/08 02:32:34;;;;;;;6.22;1.95;;;9.50;99.90;;;;;;2061118;28;20077;-84
2023/11/08 02:33:35;;;;;;;6.32;2.00;;;9.50;99.90;;;;;;2067458;28;20522;-83
2023/11/08 02:34:36;;;;;;;4.40;2.00;;;9.50;99.90;;;;;;2065858;28;20023;-84
2023/11/08 02:35:37;;;;;;;5.90;1.70;;;9.60;99.90;;;;;;2059590;28;20072;-83
2023/11/08 02:36:40;;;;;;;4.03;2.05;;;9.50;99.90;;;;;;2051920;28;20114;-84
2023/11/08 02:37:42;;;;;;;4.30;1.92;;;9.50;99.90;;;;;;2057567;28;20612;-84
2023/11/08 02:38:44;;;;;;;4.90;1.90;;;9.50;99.90;;;;;;2067854;28;20065;-83
2023/11/08 02:39:44;;;;;;;3.75;1.75;;;9.60;99.90;;;;;;2065972;28;20217;-85
2023/11/08 02:40:46;;;;;;;5.35;1.92;;;9.60;99.90;;;;;;2065468;28;20225;-84
2023/11/08 02:41:48;;;;;;;5.65;2.10;;;9.60;99.90;;;;;;2069045;28;20133;-83
2023/11/08 02:42:48;;;;;;;6.40;2.10;;;9.60;99.90;;;;;;2066615;28;20097;-83
2023/11/08 02:43:49;;;;;;;4.78;2.00;;;9.60;99.90;;;;;;2067932;28;20017;-83
2023/11/08 02:44:49;;;;;;;5.13;1.90;;;9.60;99.90;;;;;;2058691;28;20129;-83
2023/11/08 02:45:50;;;;;;;4.35;1.85;;;9.60;99.90;;;;;;2055369;28;20038;-83
2023/11/08 02:46:51;;;;;;;4.38;2.00;;;9.60;99.90;;;;;;2057897;28;20034;-84
2023/11/08 02:47:52;;;;;;;4.13;1.80;;;9.60;99.90;;;;;;2065704;28;20030;-83
2023/11/08 02:48:56;;;;;;;4.30;1.90;;;9.60;99.90;;;;;;2065837;28;20026;-83
2023/11/08 02:49:58;;;;;;;5.90;1.90;;;9.60;99.90;;;;;;2065378;28;20030;-83
2023/11/08 02:50:59;;;;;;;5.57;2.05;;;9.60;99.90;;;;;;2067688;28;20026;-83
2023/11/08 02:52:01;;;;;;;4.05;1.90;;;9.60;99.90;;;;;;2069750;28;20041;-84
2023/11/08 02:53:02;;;;;;;5.57;2.00;;;9.60;99.90;;;;;;2068217;28;20049;-82
2023/11/08 02:54:03;;;;;;;3.55;1.70;;;9.60;99.90;;;;;;2066772;28;20080;-82
2023/11/08 02:55:04;;;;;;;4.10;1.95;;;9.60;99.90;;;;;;2070267;28;20030;-83
2023/11/08 02:56:05;;;;;;;6.97;1.80;;;9.60;99.90;;;;;;2070887;28;20026;-85
2023/11/08 02:57:06;;;;;;;6.05;1.73;;;9.60;99.90;;;;;;2069619;28;20053;-82
2023/11/08 02:58:06;;;;;;;3.25;1.80;;;9.60;99.90;;;;;;2061819;28;20162;-83
2023/11/08 02:59:08;;;;;;;2.88;1.70;;;9.60;99.90;;;;;;2068127;28;20427;-84
2023/11/08 03:00:10;;;;;;;6.80;1.88;;;9.60;99.90;;;;;;2059146;28;20026;-85
2023/11/08 03:01:11;;;;;;;5.03;1.90;;;9.60;99.90;;;;;;2062291;28;20044;-83
2023/11/08 03:02:12;;;;;;;6.10;1.80;;;9.60;99.90;;;;;;2071446;28;20514;-84
2023/11/08 03:03:13;;;;;;;9.73;2.10;;;9.60;99.90;;;;;;2058937;28;20030;-83
2023/11/08 03:04:14;;;;;;;6.47;2.20;;;9.60;99.90;;;;;;2064038;28;20088;-83
2023/11/08 03:05:23;;;;;;;5.45;1.95;;;9.60;99.90;;;;;;2061729;28;20022;-83
2023/11/08 03:06:24;;;;;;;4.88;1.80;;;9.60;99.90;;;;;;2059200;28;20031;-82
2023/11/08 03:07:26;;;;;;;6.00;1.80;;;9.60;99.90;;;;;;2052697;28;20109;-85
2023/11/08 03:08:27;;;;;;;10.50;2.45;;;9.60;99.90;;;;;;2060695;28;20060;-79
2023/11/08 03:09:27;;;;;;;14.05;2.17;;;9.60;99.90;;;;;;2056199;28;20481;-84
2023/11/08 03:10:28;;;;;;;12.88;2.17;;;9.60;99.90;;;;;;2060758;28;20027;-82
2023/11/08 03:11:29;;;;;;;9.35;2.05;;;9.60;99.90;;;;;;2067852;28;20026;-86
2023/11/08 03:12:30;;;;;;;7.68;2.00;;;9.60;99.90;;;;;;2065206;28;20026;-85
2023/11/08 03:13:32;;;;;;;9.00;2.00;;;9.60;99.90;;;;;;2064964;28;20026;-84
2023/11/08 03:14:33;;;;;;;6.43;2.10;;;9.60;99.90;;;;;;2056932;28;20026;-85
2023/11/08 03:15:34;;;;;;;4.40;2.00;;;9.60;99.90;;;;;;2057519;28;20061;-83
2023/11/08 03:16:35;;;;;;;5.75;2.05;;;9.60;99.90;;;;;;2064617;28;20042;-85
2023/11/08 03:17:36;;;;;;;5.57;2.13;;;9.60;99.90;;;;;;2055383;28;20179;-84
2023/11/08 03:18:36;;;;;;;5.43;1.98;;;9.60;99.90;;;;;;2054318;28;20457;-84
2023/11/08 03:19:37;;;;;;;5.82;2.00;;;9.60;99.90;;;;;;2060957;28;20038;-85
2023/11/08 03:20:38;;;;;;;5.65;1.90;;;9.60;99.90;;;;;;2054986;28;20027;-84
2023/11/08 03:21:46;;;;;;;5.05;1.90;;;9.60;99.90;;;;;;2045040;28;20637;-84
2023/11/08 03:22:47;;;;;;;6.78;1.90;;;9.60;99.90;;;;;;2056998;28;20061;-83
2023/11/08 03:23:47;;;;;;;5.72;2.17;;;9.60;99.90;;;;;;2060459;28;20495;-82
2023/11/08 03:24:48;;;;;;;4.18;1.95;;;9.60;99.90;;;;;;2060059;28;20452;-85
2023/11/08 03:25:49;;;;;;;3.85;1.70;;;9.60;99.90;;;;;;2052510;28;20038;-85
2023/11/08 03:26:49;;;;;;;5.10;2.10;;;9.60;99.90;;;;;;2057697;28;20082;-84
2023/11/08 03:27:50;;;;;;;6.63;2.05;;;9.60;99.90;;;;;;2062177;28;20026;-84
2023/11/08 03:28:51;;;;;;;5.53;2.10;;;9.60;99.90;;;;;;2069310;28;20033;-84
2023/11/08 03:29:51;;;;;;;5.50;2.00;;;9.60;99.90;;;;;;2062652;28;20117;-83
2023/11/08 03:30:52;;;;;;;5.10;1.98;;;9.60;99.90;;;;;;2062401;28;20109;-84
2023/11/08 03:31:53;;;;;;;6.53;1.98;;;9.60;99.90;;;;;;2063398;28;20030;-85
2023/11/08 03:32:54;;;;;;;5.13;2.10;;;9.60;99.90;;;;;;2049740;28;20059;-83
2023/11/08 03:33:56;;;;;;;5.28;1.92;;;9.60;99.90;;;;;;2053620;28;20022;-84
2023/11/08 03:34:56;;;;;;;4.85;2.00;;;9.60;99.90;;;;;;2061974;28;20433;-84
2023/11/08 03:36:00;;;;;;;6.78;1.98;;;9.60;99.90;;;;;;2052875;28;20027;-84
2023/11/08 03:37:00;;;;;;;4.32;1.90;;;9.60;99.90;;;;;;2054813;28;20428;-77
2023/11/08 03:38:01;;;;;;;7.18;2.00;;;9.60;99.90;;;;;;2052034;28;20023;-71
2023/11/08 03:39:07;;;;;;;5.05;2.00;;;9.60;99.90;;;;;;2055296;28;20034;-83
2023/11/08 03:40:11;;;;;;;5.47;1.90;;;9.60;99.90;;;;;;2067626;28;20022;-76
2023/11/08 03:41:12;;;;;;;6.35;2.10;;;9.60;99.90;;;;;;2067573;28;20042;-76
2023/11/08 03:42:12;;;;;;;7.25;2.00;;;9.60;99.90;;;;;;2055232;28;20264;-77
2023/11/08 03:43:13;;;;;;;5.45;2.10;;;9.60;99.90;;;;;;2057289;28;20080;-78
2023/11/08 03:44:14;;;;;;;6.63;2.05;;;9.60;99.90;;;;;;2052558;28;20027;-77
2023/11/08 03:45:14;;;;;;;4.70;2.00;;;9.60;99.90;;;;;;2059001;28;20528;-77
2023/11/08 03:46:16;;;;;;;4.25;1.90;;;9.60;99.90;;;;;;2060641;28;20473;-77
2023/11/08 03:47:16;;;;;;;6.65;2.33;;;9.60;99.90;;;;;;2064454;28;20030;-77
2023/11/08 03:48:17;;;;;;;7.68;2.10;;;9.60;99.90;;;;;;2056406;28;20262;-75
2023/11/08 03:49:17;;;;;;;3.75;2.00;;;9.60;99.90;;;;;;2050561;28;20054;-76
2023/11/08 03:50:18;;;;;;;5.10;2.00;;;9.60;99.90;;;;;;2058331;28;20441;-77
2023/11/08 03:51:18;;;;;;;6.00;1.90;;;9.60;99.90;;;;;;2056363;28;20022;-76
2023/11/08 03:52:19;;;;;;;4.68;1.92;;;9.60;99.90;;;;;;2055570;28;20504;-76
2023/11/08 03:53:19;;;;;;;5.18;1.90;;;9.60;99.90;;;;;;2058288;28;20031;-77
2023/11/08 03:54:20;;;;;;;4.93;1.92;;;9.60;99.90;;;;;;2056324;28;20091;-75
2023/11/08 03:55:21;;;;;;;5.35;2.00;;;9.60;99.90;;;;;;2054520;28;20485;-76
2023/11/08 03:56:21;;;;;;;6.43;2.00;;;9.60;99.90;;;;;;2059075;28;20034;-76
2023/11/08 03:57:22;;;;;;;5.57;2.00;;;9.60;99.90;;;;;;2055420;28;20045;-76
2023/11/08 03:58:22;;;;;;;6.30;1.95;;;9.60;99.90;;;;;;2056573;28;20311;-76
2023/11/08 03:59:23;;;;;;;4.90;1.90;;;9.60;99.90;;;;;;2053612;28;20151;-76
2023/11/08 04:00:25;;;;;;;5.28;1.88;;;9.60;99.90;;;;;;2063937;28;20916;-76
2023/11/08 04:01:26;;;;;;;5.47;2.03;;;9.60;99.90;;;;;;2058197;28;20122;-77
2023/11/08 04:02:26;;;;;;;6.82;1.92;;;9.60;99.90;;;;;;2054438;28;20048;-76
2023/11/08 04:03:27;;;;;;;4.55;1.88;;;9.60;99.90;;;;;;2058031;28;20792;-76
2023/11/08 04:04:27;;;;;;;3.95;1.70;;;9.60;99.90;;;;;;2054949;28;20623;-76
2023/11/08 04:05:30;;;;;;;6.40;2.30;;;9.60;99.90;;;;;;2051946;28;20172;-77
2023/11/08 04:06:30;;;;;;;6.57;2.00;;;9.60;99.90;;;;;;2049826;28;20029;-76
2023/11/08 04:07:31;;;;;;;5.72;2.00;;;9.60;99.90;;;;;;2046217;28;20038;-77
2023/11/08 04:08:32;;;;;;;5.43;2.20;;;9.60;99.90;;;;;;2042750;28;20043;-77
2023/11/08 04:09:33;;;;;;;5.10;2.20;;;9.60;99.90;;;;;;2058207;28;20031;-76
2023/11/08 04:10:34;;;;;;;7.45;2.03;;;9.60;99.90;;;;;;2054976;28;20072;-76
2023/11/08 04:11:34;;;;;;;5.40;1.95;;;9.60;99.90;;;;;;2058520;28;20022;-77
2023/11/08 04:12:35;;;;;;;6.15;2.15;;;9.60;99.90;;;;;;2055028;28;20568;-75
2023/11/08 04:13:36;;;;;;;4.25;1.95;;;9.60;99.90;;;;;;2050276;28;20034;-75
2023/11/08 04:14:40;;;;;;;8.07;2.20;;;9.60;99.90;;;;;;2050289;28;20042;-76
2023/11/08 04:15:41;;;;;;;5.43;2.20;;;9.60;99.90;;;;;;2051500;28;20501;-77
2023/11/08 04:16:42;;;;;;;4.60;2.15;;;9.60;99.90;;;;;;2066350;28;20041;-77
2023/11/08 04:17:42;;;;;;;5.30;2.17;;;9.60;99.90;;;;;;2062444;28;20057;-77
2023/11/08 04:18:43;;;;;;;7.18;2.30;;;9.60;99.90;;;;;;2058382;28;20034;-76
2023/11/08 04:19:45;;;;;;;7.15;2.10;;;9.50;99.90;;;;;;2058214;28;20473;-76
2023/11/08 04:20:46;;;;;;;10.07;2.38;;;9.50;99.90;;;;;;2061449;28;20026;-75
2023/11/08 04:21:49;;;;;;;6.45;2.15;;;9.50;99.90;;;;;;2065886;28;20088;-76
2023/11/08 04:22:49;;;;;;;6.13;2.10;;;9.50;99.90;;;;;;2066798;28;20550;-77
2023/11/08 04:23:50;;;;;;;4.72;2.00;;;9.50;99.90;;;;;;2064994;28;20091;-76
2023/11/08 04:24:51;;;;;;;5.80;1.88;;;9.50;99.90;;;;;;2060938;28;20034;-77
2023/11/08 04:25:53;;;;;;;5.90;1.90;;;9.50;99.90;;;;;;2066694;28;20034;-76
2023/11/08 04:26:54;;;;;;;5.68;2.00;;;9.50;99.90;;;;;;2064495;28;20025;-76
2023/11/08 04:27:54;;;;;;;7.53;2.30;;;9.50;99.90;;;;;;2062074;28;21192;-77
2023/11/08 04:28:56;;;;;;;5.82;2.13;;;9.50;99.90;;;;;;2062217;28;20498;-77
2023/11/08 04:29:57;;;;;;;6.75;1.90;;;9.50;99.90;;;;;;2065034;28;20554;-76
2023/11/08 04:30:58;;;;;;;4.90;2.10;;;9.50;99.90;;;;;;2058891;28;20092;-76
2023/11/08 04:31:58;;;;;;;5.45;2.00;;;9.50;99.90;;;;;;2054022;28;20104;-76
2023/11/08 04:32:59;;;;;;;4.32;2.00;;;9.50;99.90;;;;;;2050312;28;20125;-77
2023/11/08 04:34:00;;;;;;;5.30;1.95;;;9.60;99.90;;;;;;2058823;28;20041;-76
2023/11/08 04:35:01;;;;;;;7.93;1.90;;;9.50;99.90;;;;;;2058696;28;20030;-77
2023/11/08 04:36:02;;;;;;;6.60;2.00;;;9.50;99.90;;;;;;2062299;28;20112;-77
2023/11/08 04:37:06;;;;;;;7.35;2.25;;;9.50;99.90;;;;;;2059126;28;20469;-77
2023/11/08 04:38:07;;;;;;;9.02;2.20;;;9.40;99.90;;;;;;2062826;28;20091;-76
2023/11/08 04:39:08;;;;;;;8.43;2.08;;;9.40;99.90;;;;;;2058143;28;20542;-77
2023/11/08 04:40:09;;;;;;;6.82;2.17;;;9.40;99.90;;;;;;2061975;28;20046;-77
2023/11/08 04:41:12;;;;;;;7.78;2.30;;;9.40;99.90;;;;;;2065554;28;20029;-74
2023/11/08 04:42:16;;;;;;;6.38;2.05;;;9.30;99.90;;;;;;2066808;28;20095;-75
2023/11/08 04:43:18;;;;;;;4.63;2.10;;;9.30;99.90;;;;;;2062565;28;20543;-78
2023/11/08 04:44:19;;;;;;;7.32;2.10;;;9.30;99.90;;;;;;2066914;28;20030;-75
2023/11/08 04:45:19;;;;;;;6.28;2.03;;;9.30;99.90;;;;;;2058034;28;20103;-75
2023/11/08 04:46:20;;;;;;;10.00;1.98;;;9.20;99.90;;;;;;2053922;28;20043;-75
2023/11/08 04:47:21;;;;;;;6.35;2.40;;;9.30;99.90;;;;;;2057799;28;20049;-76
2023/11/08 04:48:21;;;;;;;6.03;2.20;;;9.20;99.90;;;;;;2058051;28;20054;-75
2023/11/08 04:49:22;;;;;;;8.02;2.20;;;9.20;99.90;;;;;;2062632;28;20030;-76
2023/11/08 04:50:23;;;;;;;7.07;2.40;;;9.20;99.90;;;;;;2062799;28;20489;-75
2023/11/08 04:51:23;;;;;;;5.25;2.55;;;9.20;99.90;;;;;;2053662;28;20031;-76
2023/11/08 04:52:24;;;;;;;7.93;2.30;;;9.20;99.90;;;;;;2053942;28;20248;-76
2023/11/08 04:53:24;;;;;;;7.32;2.10;;;9.20;99.90;;;;;;2066766;28;20460;-77
2023/11/08 04:54:25;;;;;;;6.07;2.15;;;9.10;99.90;;;;;;2065755;28;20500;-76
2023/11/08 04:55:25;;;;;;;6.68;2.20;;;9.10;99.90;;;;;;2065958;28;20421;-77
2023/11/08 04:56:26;;;;;;;7.18;2.30;;;9.10;99.90;;;;;;2064413;28;20652;-77
2023/11/08 04:57:27;;;;;;;6.75;2.30;;;9.10;99.90;;;;;;2064838;28;20031;-77
2023/11/08 04:58:28;;;;;;;7.03;2.00;;;9.10;99.90;;;;;;2066663;28;20136;-77
2023/11/08 04:59:29;;;;;;;6.88;2.17;;;9.00;99.90;;;;;;2063725;28;20408;-77
2023/11/08 05:00:29;;;;;;;4.75;2.00;;;9.10;99.90;;;;;;2065926;28;20214;-76
2023/11/08 05:01:30;;;;;;;5.82;1.92;;;9.00;99.90;;;;;;2063649;28;20555;-76
2023/11/08 05:02:34;;;;;;;4.97;2.05;;;9.00;99.90;;;;;;2058543;28;20408;-75
2023/11/08 05:03:35;;;;;;;7.45;2.33;;;9.00;99.90;;;;;;2066828;28;20045;-77
2023/11/08 05:04:39;;;;;;;5.68;2.20;;;9.00;99.90;;;;;;2053726;28;20025;-74
2023/11/08 05:05:39;;;;;;;4.03;2.20;;;9.00;99.90;;;;;;2062300;28;20046;-77
2023/11/08 05:06:40;;;;;;;7.07;2.25;;;9.00;99.90;;;;;;2063085;28;20427;-76
2023/11/08 05:07:44;;;;;;;7.07;2.10;;;9.00;99.90;;;;;;2059223;28;20030;-77
2023/11/08 05:08:44;;;;;;;7.90;1.95;;;9.00;99.90;;;;;;2063885;28;20062;-78
2023/11/08 05:09:45;;;;;;;5.47;2.10;;;9.00;99.90;;;;;;2066058;28;20648;-75
2023/11/08 05:10:46;;;;;;;4.68;2.00;;;9.00;99.90;;;;;;2058922;28;20489;-77
2023/11/08 05:11:46;;;;;;;8.00;2.45;;;9.00;99.90;;;;;;2055469;28;20034;-75
2023/11/08 05:12:48;;;;;;;4.00;2.10;;;9.00;99.90;;;;;;2052974;28;20489;-78
2023/11/08 05:13:49;;;;;;;5.22;2.30;;;9.00;99.90;;;;;;2055724;28;20034;-78
2023/11/08 05:14:49;;;;;;;7.75;2.28;;;9.00;99.90;;;;;;2066650;28;20053;-77
2023/11/08 05:15:50;;;;;;;6.82;2.50;;;9.10;99.90;;;;;;2066163;28;20033;-75
2023/11/08 05:16:50;;;;;;;5.60;2.20;;;9.00;99.90;;;;;;2066596;28;20512;-77
2023/11/08 05:17:51;;;;;;;8.60;2.30;;;9.10;99.90;;;;;;2064651;28;20516;-76
2023/11/08 05:18:52;;;;;;;6.30;2.08;;;9.10;99.90;;;;;;2065369;28;20068;-77
2023/11/08 05:19:53;;;;;;;5.65;2.20;;;9.10;99.90;;;;;;2065306;28;20488;-77
2023/11/08 05:20:54;;;;;;;7.05;2.42;;;9.10;99.90;;;;;;2066913;28;20125;-77
2023/11/08 05:21:55;;;;;;;7.50;2.22;;;9.10;99.90;;;;;;2063433;28;20030;-77
2023/11/08 05:22:56;;;;;;;4.28;2.10;;;9.10;99.90;;;;;;2056627;28;20050;-76
2023/11/08 05:23:56;;;;;;;9.18;2.30;;;9.10;99.90;;;;;;2050569;28;20637;-77